Terminal Aerodrome Forecast
Issued by NWS La Crosse, WI

Current Version | Previous Version | Text Only | Print | Product List | Glossary On
Versions: 1 2 3 4 5 6 7 8 9 10 11 12 13 14 15 16 17 18
000
FTUS43 KARX 231120
TAFRST
TAF
KRST 231120Z 2312/2412 13012G18KT P6SM VCSH BKN090
     FM231700 13015G22KT P6SM -SHRA OVC070
     FM232100 13018G26KT P6SM -SHRA OVC050
     FM240200 13016KT P6SM OVC030
     FM240900 12012KT 4SM -RA BR OVC009=

USA.gov is the U.S. government's official web portal to all federal, state and local government web resources and services.